createdAt,value
2022-11-01T08:38:23.069Z,5.20
2022-11-01T08:40:50.850Z,3.97
2022-11-01T08:43:18.749Z,4.03
2022-11-01T08:45:46.625Z,4.00
2022-11-01T08:48:14.963Z,6.25
2022-11-01T08:50:42.772Z,3.15
2022-11-01T08:53:12.095Z,3.25
2022-11-01T08:55:41.762Z,3.58
2022-11-01T08:58:09.981Z,3.30
2022-11-01T09:00:38.000Z,2.92
2022-11-01T09:03:06.356Z,3.20
2022-11-01T09:05:34.458Z,3.20
2022-11-01T09:08:03.009Z,3.42
2022-11-01T09:10:32.180Z,2.97
2022-11-01T09:13:02.375Z,2.80
2022-11-01T09:15:31.197Z,3.45
2022-11-01T09:17:59.071Z,2.53
2022-11-01T09:20:28.208Z,2.30
2022-11-01T09:22:56.112Z,3.05
2022-11-01T09:25:24.788Z,2.30
2022-11-01T09:27:52.608Z,2.85
2022-11-01T09:30:21.960Z,2.55
2022-11-01T09:32:49.798Z,2.47
2022-11-01T09:35:18.040Z,3.40
2022-11-01T09:37:45.902Z,2.42
2022-11-01T09:40:15.784Z,2.05
2022-11-01T09:42:45.371Z,2.50
2022-11-01T09:45:18.852Z,2.70
2022-11-01T09:47:51.270Z,2.15
2022-11-01T09:50:23.573Z,2.30
2022-11-01T09:52:52.318Z,2.28
2022-11-01T09:55:27.114Z,2.45
2022-11-01T09:58:02.111Z,2.50
2022-11-01T10:00:36.613Z,2.20
2022-11-01T10:03:35.600Z,2.05
2022-11-01T10:06:11.763Z,2.08
2022-11-01T10:08:54.557Z,2.28
2022-11-01T10:11:44.819Z,2.03
2022-11-01T10:14:28.648Z,3.17
2022-11-01T10:17:06.858Z,2.00
2022-11-01T10:19:51.804Z,2.00
2022-11-01T10:22:24.952Z,2.00
2022-11-01T10:24:58.574Z,3.00
2022-11-01T10:27:36.266Z,1.75
2022-11-01T10:30:12.270Z,1.90
2022-11-01T10:32:46.840Z,1.98
2022-11-01T10:35:26.513Z,2.08
2022-11-01T10:38:19.246Z,1.85
2022-11-01T10:40:56.345Z,1.45
2022-11-01T10:43:26.887Z,1.95
2022-11-01T10:45:58.816Z,1.60
2022-11-01T10:48:33.012Z,1.45
2022-11-01T10:51:06.634Z,1.83
2022-11-01T10:53:38.914Z,1.85
2022-11-01T10:56:10.281Z,1.40
2022-11-01T10:58:43.686Z,1.90
2022-11-01T11:01:15.911Z,1.52
2022-11-01T11:03:46.880Z,1.60
2022-11-01T11:06:16.874Z,1.13
2022-11-01T11:08:50.320Z,1.42
2022-11-01T11:11:23.308Z,1.38
2022-11-01T11:13:55.140Z,1.40
2022-11-01T11:16:31.602Z,1.70
2022-11-01T11:19:04.129Z,1.20
2022-11-01T11:21:36.344Z,1.20
2022-11-01T11:24:04.527Z,1.48
2022-11-01T11:26:39.069Z,1.48
2022-11-01T11:29:07.336Z,1.17
2022-11-01T11:31:36.135Z,1.38
2022-11-01T11:34:16.349Z,1.70
2022-11-01T11:36:49.821Z,1.67
2022-11-01T11:39:25.813Z,1.33
2022-11-01T11:41:53.730Z,1.17
2022-11-01T11:44:41.386Z,1.40
2022-11-01T11:47:19.503Z,1.63
2022-11-01T11:49:48.491Z,0.93
2022-11-01T11:52:21.801Z,1.13
2022-11-01T11:54:51.272Z,1.15
2022-11-01T11:57:22.014Z,1.10
2022-11-01T11:59:55.478Z,0.95
2022-11-01T12:02:27.621Z,0.70
2022-11-01T12:04:58.364Z,1.80
2022-11-01T12:07:31.075Z,1.13
2022-11-01T12:10:02.918Z,1.15
2022-11-01T12:12:32.503Z,1.20
2022-11-01T12:15:02.088Z,1.20
2022-11-01T12:17:33.387Z,1.00
2022-11-01T12:20:04.093Z,1.10
2022-11-01T12:22:36.287Z,2.30
2022-11-01T12:25:08.265Z,1.15
2022-11-01T12:27:36.790Z,1.17
2022-11-01T12:30:08.618Z,0.90
2022-11-01T12:32:44.996Z,1.10
2022-11-01T12:35:21.983Z,1.23
2022-11-01T12:38:02.200Z,2.42
2022-11-01T12:40:33.323Z,1.23
2022-11-01T12:43:06.848Z,1.27
2022-11-01T12:45:44.811Z,2.22
2022-11-01T12:48:18.263Z,0.82
2022-11-01T12:50:51.680Z,1.13
2022-11-01T12:53:26.434Z,0.80
2022-11-01T12:55:54.681Z,1.00
2022-11-01T12:58:24.047Z,0.90
2022-11-01T13:01:08.971Z,1.92
2022-11-01T13:03:47.642Z,0.73
2022-11-01T13:06:39.660Z,0.60
2022-11-01T13:09:14.976Z,0.70
2022-11-01T13:11:54.681Z,1.10
2022-11-01T13:14:38.937Z,0.80
2022-11-01T13:17:14.235Z,0.70
2022-11-01T13:19:50.759Z,1.33
2022-11-01T13:22:24.042Z,0.80
2022-11-01T13:25:00.650Z,1.23
2022-11-01T13:27:37.312Z,0.90
2022-11-01T13:30:10.606Z,0.90
2022-11-01T13:32:46.222Z,1.00
2022-11-01T13:35:34.393Z,0.70
2022-11-01T13:38:09.911Z,1.10
2022-11-01T13:40:47.467Z,1.08
2022-11-01T13:43:19.454Z,1.00
2022-11-01T13:46:15.763Z,0.95
2022-11-01T13:49:04.434Z,1.10
2022-11-01T13:51:44.267Z,0.95
2022-11-01T13:54:22.149Z,1.65
2022-11-01T13:56:56.991Z,0.82
2022-11-01T13:59:33.840Z,0.88
2022-11-01T14:02:38.521Z,1.10
2022-11-01T14:05:09.852Z,0.80
2022-11-01T14:07:39.000Z,0.80
2022-11-01T14:10:11.984Z,1.35
2022-11-01T14:12:48.110Z,0.60
2022-11-01T14:15:24.737Z,1.00
2022-11-01T14:18:07.749Z,0.85
2022-11-01T14:20:51.748Z,0.95
2022-11-01T14:24:00.284Z,0.80
2022-11-01T14:26:39.893Z,0.90
2022-11-01T14:29:13.020Z,1.10
2022-11-01T14:31:44.257Z,0.90
2022-11-01T14:34:35.395Z,0.98
2022-11-01T14:37:14.913Z,0.70
2022-11-01T14:39:49.040Z,0.90
2022-11-01T14:42:23.123Z,1.38
2022-11-01T14:44:54.913Z,1.75
2022-11-01T14:47:36.733Z,1.10
2022-11-01T14:50:15.732Z,1.30
2022-11-01T14:52:48.609Z,0.88
2022-11-01T14:55:19.892Z,0.93
2022-11-01T14:57:48.571Z,2.13
2022-11-01T15:00:26.385Z,0.98
2022-11-01T15:02:54.291Z,1.38
2022-11-01T15:05:22.415Z,0.93
2022-11-01T15:07:52.607Z,1.00
2022-11-01T15:10:21.088Z,1.10
2022-11-01T15:12:52.769Z,1.05
2022-11-01T15:15:24.920Z,1.13
2022-11-01T15:17:56.431Z,1.08
2022-11-01T15:20:27.346Z,1.08
2022-11-01T15:22:57.779Z,1.00
2022-11-01T15:27:57.070Z,0.80
2022-11-01T15:30:30.140Z,1.00
2022-11-01T15:33:16.878Z,1.00
2022-11-01T15:35:53.417Z,1.15
2022-11-01T15:38:22.124Z,1.13
2022-11-01T15:40:52.194Z,0.90
2022-11-01T15:43:22.173Z,2.92
2022-11-01T15:45:54.867Z,1.20
2022-11-01T15:48:26.791Z,1.10
2022-11-01T15:50:58.334Z,1.20
2022-11-01T15:53:29.417Z,1.10
2022-11-01T15:56:03.445Z,1.45
2022-11-01T15:58:37.556Z,1.70
2022-11-01T16:01:14.121Z,1.38
2022-11-01T16:03:44.922Z,1.63
2022-11-01T16:06:17.785Z,1.65
2022-11-01T16:08:52.001Z,1.15
2022-11-01T16:11:22.597Z,1.33
2022-11-01T16:13:52.849Z,1.20
2022-11-01T16:16:22.139Z,1.00
2022-11-01T16:18:50.029Z,0.90
2022-11-01T16:21:36.305Z,1.00
2022-11-01T16:24:15.484Z,1.27
2022-11-01T16:26:58.392Z,1.23
2022-11-01T16:29:43.703Z,0.80
2022-11-01T16:32:20.816Z,1.20
2022-11-01T16:34:49.031Z,1.42
2022-11-01T16:37:22.660Z,1.30
2022-11-01T16:39:50.531Z,1.30
2022-11-01T16:42:19.166Z,1.20
2022-11-01T16:44:55.861Z,1.40
2022-11-01T16:47:25.140Z,1.60
2022-11-01T16:49:55.056Z,2.92
2022-11-01T16:52:22.935Z,1.52
2022-11-01T16:54:51.417Z,1.17
2022-11-01T16:57:26.027Z,1.60
2022-11-01T16:59:55.589Z,0.98
2022-11-01T17:02:27.990Z,1.30
2022-11-01T17:04:59.645Z,1.08
2022-11-01T17:07:27.663Z,1.30
2022-11-01T17:09:55.703Z,1.63
2022-11-01T17:12:23.538Z,1.02
2022-11-01T17:14:52.470Z,1.10
2022-11-01T17:17:24.651Z,1.10
2022-11-01T17:19:59.882Z,1.00
2022-11-01T17:22:35.127Z,1.50
2022-11-01T17:25:04.639Z,1.95
2022-11-01T17:27:32.591Z,3.00
2022-11-01T17:30:00.479Z,3.72
2022-11-01T17:32:28.775Z,4.32
2022-11-01T17:34:57.983Z,5.57
2022-11-01T17:37:29.997Z,6.53
2022-11-01T17:39:57.858Z,3.90
2022-11-01T17:42:25.665Z,3.75
2022-11-01T17:44:53.686Z,4.78
2022-11-01T17:47:21.606Z,4.22
2022-11-01T17:49:49.453Z,4.15
2022-11-01T17:52:18.921Z,3.33
2022-11-01T17:54:46.680Z,3.47
2022-11-01T17:57:14.491Z,3.28
2022-11-01T17:59:42.348Z,4.88
2022-11-01T18:02:11.014Z,3.50
2022-11-01T18:04:38.890Z,4.10
2022-11-01T18:07:07.478Z,4.25
2022-11-01T18:09:37.355Z,4.97
2022-11-01T18:12:11.677Z,4.70
2022-11-01T18:14:50.543Z,4.07
2022-11-01T18:17:35.801Z,3.90
2022-11-01T18:20:14.145Z,4.50
2022-11-01T18:22:50.428Z,4.65
2022-11-01T18:25:28.505Z,4.72
2022-11-01T18:28:00.152Z,5.10
2022-11-01T18:30:28.509Z,5.57
2022-11-01T18:33:03.262Z,5.25
2022-11-01T18:35:34.448Z,5.40
2022-11-01T18:38:17.810Z,5.53
2022-11-01T18:40:56.674Z,5.45
2022-11-01T18:43:25.107Z,4.60
2022-11-01T18:46:23.280Z,3.90
2022-11-01T18:48:42.932Z,3.35
2022-11-01T18:51:14.913Z,3.40
2022-11-01T18:53:43.064Z,3.42
2022-11-01T18:56:21.298Z,4.47
2022-11-01T18:58:50.439Z,3.30
2022-11-01T19:01:19.794Z,3.58
2022-11-01T19:03:57.154Z,3.45
2022-11-01T19:06:27.095Z,3.38
2022-11-01T19:08:57.016Z,3.72
2022-11-01T19:11:26.933Z,5.55
2022-11-01T19:13:55.731Z,4.45
2022-11-01T19:16:23.567Z,3.88
2022-11-01T19:18:52.344Z,3.85
2022-11-01T19:21:21.473Z,3.05
2022-11-01T19:23:51.223Z,3.75
2022-11-01T19:26:23.873Z,3.97
2022-11-01T19:28:53.742Z,9.07
2022-11-01T19:31:25.929Z,4.85
2022-11-01T19:33:59.012Z,4.05
2022-11-01T19:36:36.588Z,5.75
2022-11-01T19:39:18.118Z,3.50
2022-11-01T19:41:46.491Z,3.72
2022-11-01T19:44:20.379Z,2.53
2022-11-01T19:46:48.814Z,3.25
2022-11-01T19:49:22.554Z,4.00
2022-11-01T19:51:59.196Z,3.67
2022-11-01T19:54:29.903Z,3.42
2022-11-01T19:57:00.246Z,2.97
2022-11-01T19:59:29.872Z,3.47
2022-11-01T20:01:59.035Z,3.20
2022-11-01T20:04:29.671Z,2.90
2022-11-01T20:09:31.657Z,3.95
2022-11-01T20:12:01.595Z,2.58
2022-11-01T20:14:33.271Z,2.88
2022-11-01T20:17:01.075Z,3.45
2022-11-01T20:19:29.145Z,3.40
2022-11-01T20:21:57.131Z,3.63
2022-11-01T20:24:24.914Z,2.90
2022-11-01T20:26:52.757Z,3.47
2022-11-01T20:29:20.620Z,3.15
2022-11-01T20:31:49.976Z,3.33
2022-11-01T20:34:17.866Z,3.13
2022-11-01T20:37:02.225Z,4.40
2022-11-01T20:39:33.737Z,3.13
2022-11-01T20:42:02.037Z,3.40
2022-11-01T20:44:30.181Z,2.78
2022-11-01T20:46:59.675Z,2.90
2022-11-01T20:49:27.853Z,3.22
2022-11-01T20:52:00.520Z,3.40
2022-11-01T20:57:04.504Z,2.80
2022-11-01T20:59:32.420Z,2.80
2022-11-01T21:02:04.013Z,2.65
2022-11-01T21:04:32.491Z,2.60
2022-11-01T21:07:00.364Z,3.85
2022-11-01T21:09:32.428Z,2.92
2022-11-01T21:12:00.431Z,2.83
2022-11-01T21:14:37.280Z,2.63
2022-11-01T21:17:17.759Z,2.45
2022-11-01T21:19:50.140Z,2.67
2022-11-01T21:22:20.842Z,2.38
2022-11-01T21:24:50.350Z,2.55
2022-11-01T21:27:25.243Z,2.90
2022-11-01T21:29:54.112Z,2.20
2022-11-01T21:32:29.846Z,2.10
2022-11-01T21:34:58.475Z,2.72
2022-11-01T21:37:29.714Z,2.10
2022-11-01T21:40:05.718Z,3.92
2022-11-01T21:42:37.059Z,2.05
2022-11-01T21:45:28.323Z,2.38
2022-11-01T21:48:00.854Z,3.47
2022-11-01T21:50:28.931Z,2.85
2022-11-01T21:52:56.698Z,2.75
2022-11-01T21:55:24.453Z,2.85
2022-11-01T21:57:52.272Z,3.40
2022-11-01T22:00:20.133Z,3.83
2022-11-01T22:02:47.951Z,2.50
2022-11-01T22:05:17.380Z,2.60
2022-11-01T22:07:45.210Z,2.13
2022-11-01T22:10:13.039Z,2.28
2022-11-01T22:12:40.854Z,2.30
2022-11-01T22:15:09.524Z,2.40
2022-11-01T22:17:37.296Z,2.20
2022-11-01T22:20:06.082Z,2.20
2022-11-01T22:22:35.211Z,2.70
2022-11-01T22:25:02.995Z,2.70
2022-11-01T22:27:30.786Z,2.85
2022-11-01T22:29:58.645Z,2.83
2022-11-01T22:32:26.393Z,2.65
2022-11-01T22:34:54.216Z,2.60
2022-11-01T22:37:21.979Z,2.35
2022-11-01T22:39:53.128Z,3.17
2022-11-01T22:42:21.909Z,2.88
2022-11-01T22:44:51.613Z,2.60
2022-11-01T22:47:25.559Z,2.60
2022-11-01T22:49:55.525Z,2.17
2022-11-01T22:52:31.671Z,2.13
2022-11-01T22:55:06.820Z,2.13
2022-11-01T22:57:36.643Z,2.42
2022-11-01T23:00:28.095Z,2.85
2022-11-01T23:03:01.241Z,2.55
2022-11-01T23:05:29.835Z,2.13
2022-11-01T23:08:01.687Z,3.55
2022-11-01T23:10:32.866Z,3.03
2022-11-01T23:13:25.454Z,2.85
2022-11-01T23:15:53.361Z,2.72
2022-11-01T23:18:23.916Z,2.63
2022-11-01T23:25:53.226Z,3.40
2022-11-01T23:28:21.230Z,2.70
2022-11-01T23:30:49.565Z,2.65
2022-11-01T23:33:20.109Z,2.75
2022-11-01T23:38:22.661Z,2.10
2022-11-01T23:40:54.823Z,2.33
2022-11-01T23:43:25.476Z,3.08
2022-11-01T23:45:53.674Z,2.80
2022-11-01T23:48:23.732Z,2.60
2022-11-01T23:50:54.137Z,2.20
2022-11-01T23:53:29.283Z,2.22
2022-11-01T23:56:00.026Z,2.78
2022-11-01T23:58:30.939Z,3.42
